createdAt,value
2019-03-24T00:02:08.397Z,8.73
2019-03-24T00:04:56.601Z,8.48
2019-03-24T00:07:44.656Z,8.36
2019-03-24T00:10:33.366Z,8.43
2019-03-24T00:13:22.103Z,8.38
2019-03-24T00:16:10.208Z,8.23
2019-03-24T00:18:58.417Z,8.18
2019-03-24T00:21:46.619Z,8.26
2019-03-24T00:24:34.568Z,8.13
2019-03-24T00:27:23.225Z,8.34
2019-03-24T00:30:12.257Z,8.54
2019-03-24T00:33:00.617Z,8.42
2019-03-24T00:35:48.645Z,8.25
2019-03-24T00:38:37.210Z,8.50
2019-03-24T00:41:25.424Z,8.21
2019-03-24T00:44:13.601Z,8.30
2019-03-24T00:47:01.774Z,8.35
2019-03-24T00:49:50.303Z,8.36
2019-03-24T00:52:38.320Z,8.30
2019-03-24T00:55:26.692Z,8.22
2019-03-24T00:58:14.974Z,8.03
2019-03-24T01:01:04.024Z,8.19
2019-03-24T01:03:52.471Z,7.93
2019-03-24T01:06:40.878Z,8.13
2019-03-24T01:09:29.221Z,8.19
2019-03-24T01:12:17.573Z,7.91
2019-03-24T01:15:07.626Z,8.09
2019-03-24T01:17:57.423Z,8.10
2019-03-24T01:20:45.793Z,8.08
2019-03-24T01:23:33.734Z,8.03
2019-03-24T01:26:21.579Z,8.05
2019-03-24T01:29:09.901Z,7.98
2019-03-24T01:31:58.323Z,7.93
2019-03-24T01:34:46.604Z,7.80
2019-03-24T01:37:34.987Z,7.67
2019-03-24T01:40:23.351Z,7.50
2019-03-24T01:43:11.367Z,7.54
2019-03-24T01:46:00.140Z,7.35
2019-03-24T01:48:48.318Z,7.18
2019-03-24T01:51:36.237Z,7.23
2019-03-24T01:54:24.704Z,7.26
2019-03-24T01:57:13.262Z,7.31
2019-03-24T02:00:01.425Z,7.42
2019-03-24T02:02:49.918Z,7.25
2019-03-24T02:05:38.472Z,7.17
2019-03-24T02:08:26.638Z,7.67
2019-03-24T02:11:15.128Z,7.70
2019-03-24T02:14:03.465Z,7.62
2019-03-24T02:16:52.009Z,7.48
2019-03-24T02:19:39.924Z,7.36
2019-03-24T02:22:28.272Z,7.42
2019-03-24T02:25:17.172Z,7.48
2019-03-24T02:28:05.527Z,7.41
2019-03-24T02:30:54.097Z,7.52
2019-03-24T02:33:41.955Z,7.48
2019-03-24T02:36:30.099Z,7.47
2019-03-24T02:39:18.361Z,7.30
2019-03-24T02:42:07.379Z,7.19
2019-03-24T02:44:56.042Z,7.32
2019-03-24T02:47:44.450Z,7.33
2019-03-24T02:50:32.851Z,7.29
2019-03-24T02:53:20.842Z,7.28
2019-03-24T02:56:09.668Z,7.12
2019-03-24T02:58:58.026Z,7.18
2019-03-24T03:01:46.322Z,7.23
2019-03-24T03:04:34.679Z,7.21
2019-03-24T03:07:22.960Z,7.02
2019-03-24T03:10:11.245Z,6.93
2019-03-24T03:12:59.885Z,6.72
2019-03-24T03:15:48.156Z,7.05
2019-03-24T03:18:37.034Z,6.98
2019-03-24T03:21:25.684Z,7.02
2019-03-24T03:24:13.934Z,6.81
2019-03-24T03:27:02.201Z,6.73
2019-03-24T03:29:50.908Z,6.93
2019-03-24T03:32:39.350Z,6.94
2019-03-24T03:35:28.015Z,6.99
2019-03-24T03:38:16.347Z,6.93
2019-03-24T03:41:04.711Z,6.80
2019-03-24T03:43:52.669Z,6.79
2019-03-24T03:46:51.875Z,6.85
2019-03-24T03:49:31.093Z,6.62
2019-03-24T03:52:19.719Z,6.44
2019-03-24T03:55:08.161Z,6.43
2019-03-24T03:57:56.851Z,6.57
2019-03-24T04:00:45.509Z,6.55
2019-03-24T04:03:33.650Z,6.28
2019-03-24T04:06:22.183Z,6.16
2019-03-24T04:09:10.087Z,6.14
2019-03-24T04:11:58.621Z,6.23
2019-03-24T04:14:46.980Z,6.09
2019-03-24T04:17:35.462Z,5.85
2019-03-24T04:20:23.901Z,5.90
2019-03-24T04:23:12.510Z,5.97
2019-03-24T04:26:00.855Z,5.88
2019-03-24T04:28:48.969Z,5.90
2019-03-24T04:31:37.464Z,5.87
2019-03-24T04:34:26.177Z,5.67
2019-03-24T04:37:14.951Z,5.74
2019-03-24T04:40:03.942Z,5.75
2019-03-24T04:42:52.210Z,5.75
2019-03-24T04:45:40.057Z,5.92
2019-03-24T04:48:28.322Z,6.05
2019-03-24T04:51:16.507Z,6.25
2019-03-24T04:54:04.657Z,6.24
2019-03-24T04:56:52.576Z,6.11
2019-03-24T04:59:40.938Z,5.86
2019-03-24T05:02:29.613Z,6.06
2019-03-24T05:05:17.963Z,5.99
2019-03-24T05:08:06.790Z,6.07
2019-03-24T05:10:55.252Z,5.78
2019-03-24T05:13:44.188Z,5.58
2019-03-24T05:16:32.949Z,5.60
2019-03-24T05:19:21.315Z,5.61
2019-03-24T05:22:09.455Z,5.97
2019-03-24T05:24:57.746Z,6.02
2019-03-24T05:27:46.564Z,5.83
2019-03-24T05:30:34.646Z,5.67
2019-03-24T05:33:23.030Z,5.86
2019-03-24T05:36:10.994Z,6.00
2019-03-24T05:39:00.063Z,5.97
2019-03-24T05:41:48.480Z,5.87
2019-03-24T05:44:36.895Z,5.81
2019-03-24T05:47:25.105Z,5.68
2019-03-24T05:50:13.367Z,5.57
2019-03-24T05:53:01.362Z,5.80
2019-03-24T05:55:49.695Z,5.79
2019-03-24T05:58:37.806Z,6.07
2019-03-24T06:01:26.137Z,6.86
2019-03-24T06:04:14.405Z,7.21
2019-03-24T06:07:02.411Z,7.63
2019-03-24T06:09:50.975Z,8.11
2019-03-24T06:12:39.185Z,8.32
2019-03-24T06:15:27.308Z,8.38
2019-03-24T06:18:15.939Z,8.71
2019-03-24T06:21:05.038Z,8.97
2019-03-24T06:23:53.235Z,9.09
2019-03-24T06:26:41.418Z,8.96
2019-03-24T06:29:29.596Z,9.64
2019-03-24T06:32:18.008Z,10.05
2019-03-24T06:35:07.033Z,10.46
2019-03-24T06:37:55.460Z,11.23
2019-03-24T06:40:43.912Z,11.58
2019-03-24T06:43:32.472Z,11.14
2019-03-24T06:46:20.924Z,10.50
2019-03-24T06:49:08.831Z,10.64
2019-03-24T06:51:57.425Z,10.56
2019-03-24T06:54:45.790Z,10.92
2019-03-24T06:57:34.118Z,10.75
2019-03-24T07:00:22.383Z,11.48
2019-03-24T07:03:10.963Z,11.81
2019-03-24T07:05:59.399Z,12.68
2019-03-24T07:08:47.702Z,12.96
2019-03-24T07:11:36.304Z,13.19
2019-03-24T07:14:25.284Z,13.55
2019-03-24T07:17:13.700Z,13.55
2019-03-24T07:20:02.324Z,13.14
2019-03-24T07:22:50.939Z,13.85
2019-03-24T07:25:39.333Z,14.68
2019-03-24T07:28:27.793Z,15.18
2019-03-24T07:31:16.452Z,14.97
2019-03-24T07:34:04.805Z,15.14
2019-03-24T07:36:53.576Z,15.33
2019-03-24T07:39:42.006Z,15.35
2019-03-24T07:42:30.246Z,15.05
2019-03-24T07:45:18.525Z,15.24
2019-03-24T07:48:06.819Z,14.88
2019-03-24T07:50:54.972Z,14.96
2019-03-24T07:53:42.907Z,14.65
2019-03-24T07:56:31.491Z,14.78
2019-03-24T07:59:20.254Z,15.03
2019-03-24T08:02:08.271Z,14.92
2019-03-24T08:04:56.364Z,14.82
2019-03-24T08:07:44.845Z,15.32
2019-03-24T08:10:32.972Z,15.05
2019-03-24T08:13:21.274Z,14.49
2019-03-24T08:16:09.259Z,14.98
2019-03-24T08:18:57.537Z,15.42
2019-03-24T08:21:45.501Z,15.15
2019-03-24T08:24:34.255Z,15.60
2019-03-24T08:27:22.455Z,15.60
2019-03-24T08:30:10.776Z,15.29
2019-03-24T08:32:59.058Z,15.21
2019-03-24T08:35:47.384Z,15.24
2019-03-24T08:38:35.835Z,14.98
2019-03-24T08:41:24.647Z,15.01
2019-03-24T08:44:12.921Z,15.31
2019-03-24T08:47:01.099Z,15.00
2019-03-24T08:49:49.963Z,14.97
2019-03-24T08:52:38.887Z,14.92
2019-03-24T08:55:27.109Z,14.93
2019-03-24T08:58:14.984Z,14.97
2019-03-24T09:01:03.418Z,14.85
2019-03-24T09:03:51.417Z,14.74
2019-03-24T09:06:39.807Z,14.30
2019-03-24T09:09:27.968Z,14.09
2019-03-24T09:12:16.178Z,13.74
2019-03-24T09:15:04.526Z,13.65
2019-03-24T09:17:52.788Z,13.37
2019-03-24T09:20:42.053Z,13.32
2019-03-24T09:23:30.463Z,13.41
2019-03-24T09:26:18.976Z,13.43
2019-03-24T09:29:07.240Z,13.46
2019-03-24T09:31:55.716Z,13.74
2019-03-24T09:34:44.174Z,13.70
2019-03-24T09:37:32.380Z,13.69
2019-03-24T09:40:27.205Z,13.45
2019-03-24T09:43:15.417Z,13.69
2019-03-24T09:46:03.450Z,13.70
2019-03-24T09:48:51.424Z,13.97
2019-03-24T09:51:39.657Z,13.95
2019-03-24T09:54:27.956Z,14.06
2019-03-24T09:57:16.523Z,14.30
2019-03-24T10:00:04.560Z,14.32
2019-03-24T10:02:52.814Z,14.27
2019-03-24T10:05:41.002Z,14.49
2019-03-24T10:08:28.873Z,14.56
2019-03-24T10:11:17.685Z,14.78
2019-03-24T10:14:05.900Z,14.69
2019-03-24T10:16:55.717Z,14.96
2019-03-24T10:19:44.100Z,15.10
2019-03-24T10:22:32.279Z,15.27
2019-03-24T10:25:20.404Z,15.38
2019-03-24T10:28:08.725Z,15.27
2019-03-24T10:30:57.123Z,15.22
2019-03-24T10:33:45.044Z,15.37
2019-03-24T10:36:33.481Z,15.20
2019-03-24T10:39:22.385Z,14.97
2019-03-24T10:42:10.623Z,15.09
2019-03-24T10:44:59.009Z,15.20
2019-03-24T10:47:47.172Z,15.38
2019-03-24T10:50:35.818Z,15.51
2019-03-24T10:53:24.273Z,15.66
2019-03-24T10:56:12.892Z,15.52
2019-03-24T10:59:00.778Z,15.60
2019-03-24T11:01:49.123Z,15.76
2019-03-24T11:04:37.330Z,16.01
2019-03-24T11:07:25.289Z,16.29
2019-03-24T11:10:13.847Z,16.45
2019-03-24T11:13:02.067Z,16.52
2019-03-24T11:15:51.060Z,16.66
2019-03-24T11:18:39.411Z,16.72
2019-03-24T11:21:27.712Z,16.74
2019-03-24T11:24:16.287Z,16.77
2019-03-24T11:27:04.714Z,16.74
2019-03-24T11:29:53.211Z,16.39
2019-03-24T11:32:41.928Z,16.51
2019-03-24T11:35:30.060Z,16.67
2019-03-24T11:38:18.446Z,16.61
2019-03-24T11:41:06.831Z,16.57
2019-03-24T11:43:55.029Z,16.83
2019-03-24T11:46:43.208Z,16.94
2019-03-24T11:49:31.433Z,16.99
2019-03-24T11:52:19.572Z,16.98
2019-03-24T11:55:08.332Z,17.09
2019-03-24T11:58:05.333Z,17.20
2019-03-24T12:00:46.231Z,17.12
2019-03-24T12:03:34.488Z,17.25
2019-03-24T12:06:22.871Z,17.14
2019-03-24T12:09:11.427Z,17.33
2019-03-24T12:11:59.820Z,17.12
2019-03-24T12:14:47.724Z,17.22
2019-03-24T12:17:36.406Z,17.46
2019-03-24T12:20:24.613Z,17.42
2019-03-24T12:23:12.689Z,17.59
2019-03-24T12:26:01.616Z,17.49
2019-03-24T12:28:49.897Z,17.31
2019-03-24T12:31:38.271Z,17.50
2019-03-24T12:34:26.550Z,17.71
2019-03-24T12:37:14.777Z,17.82
2019-03-24T12:40:03.163Z,18.00
2019-03-24T12:42:52.168Z,17.79
2019-03-24T12:45:40.112Z,17.97
2019-03-24T12:48:29.091Z,17.76
2019-03-24T12:51:17.914Z,17.67
2019-03-24T12:54:06.158Z,17.72
2019-03-24T12:56:54.633Z,17.94
2019-03-24T12:59:42.795Z,18.07
2019-03-24T13:02:31.383Z,18.19
2019-03-24T13:05:19.360Z,18.27
2019-03-24T13:08:15.768Z,18.30
2019-03-24T13:11:04.059Z,18.13
2019-03-24T13:13:52.720Z,18.11
2019-03-24T13:16:41.009Z,18.27
2019-03-24T13:19:29.691Z,18.16
2019-03-24T13:22:17.961Z,17.95
2019-03-24T13:25:06.707Z,18.14
2019-03-24T13:27:55.364Z,17.98
2019-03-24T13:30:43.561Z,18.08
2019-03-24T13:33:32.034Z,18.21
2019-03-24T13:36:20.059Z,18.24
2019-03-24T13:39:08.568Z,18.19
2019-03-24T13:41:56.754Z,18.19
2019-03-24T13:44:44.667Z,18.30
2019-03-24T13:47:33.179Z,18.38
2019-03-24T13:50:30.893Z,18.41
2019-03-24T13:53:11.613Z,18.42
2019-03-24T13:55:59.787Z,18.19
2019-03-24T13:58:48.557Z,18.36
2019-03-24T14:01:37.096Z,18.46
2019-03-24T14:04:25.783Z,18.36
2019-03-24T14:07:14.378Z,18.33
2019-03-24T14:10:02.670Z,18.18
2019-03-24T14:12:51.011Z,18.29
2019-03-24T14:15:39.265Z,18.44
2019-03-24T14:18:27.525Z,18.31
2019-03-24T14:21:16.138Z,18.49
2019-03-24T14:24:04.766Z,18.30
2019-03-24T14:26:52.832Z,18.45
2019-03-24T14:29:40.935Z,18.37
2019-03-24T14:32:29.461Z,18.56
2019-03-24T14:35:18.060Z,18.53
2019-03-24T14:38:06.852Z,18.53
2019-03-24T14:40:55.267Z,18.35
2019-03-24T14:43:43.915Z,18.38
2019-03-24T14:46:32.362Z,18.20
2019-03-24T14:49:20.877Z,18.20
2019-03-24T14:52:09.076Z,18.05
2019-03-24T14:54:57.063Z,18.00
2019-03-24T14:57:45.068Z,17.92
2019-03-24T15:00:38.057Z,17.75
2019-03-24T15:03:26.385Z,17.63
2019-03-24T15:06:14.741Z,17.70
2019-03-24T15:09:04.770Z,17.76
2019-03-24T15:11:52.903Z,17.83
2019-03-24T15:14:41.319Z,17.87
2019-03-24T15:17:29.529Z,17.99
2019-03-24T15:20:17.824Z,17.69
2019-03-24T15:23:06.124Z,17.76
2019-03-24T15:25:54.709Z,17.75
2019-03-24T15:28:42.848Z,17.53
2019-03-24T15:31:30.911Z,17.57
2019-03-24T15:34:19.012Z,17.69
2019-03-24T15:37:07.282Z,17.71
2019-03-24T15:39:55.809Z,17.70
2019-03-24T15:42:44.023Z,17.71
2019-03-24T15:45:32.321Z,17.52
2019-03-24T15:48:20.706Z,17.25
2019-03-24T15:51:16.819Z,17.31
2019-03-24T15:53:59.133Z,17.33
2019-03-24T15:56:47.267Z,17.27
2019-03-24T15:59:36.894Z,17.21
2019-03-24T16:02:25.060Z,17.07
2019-03-24T16:05:13.730Z,16.97
2019-03-24T16:08:02.515Z,16.90
2019-03-24T16:10:50.798Z,16.88
2019-03-24T16:13:38.987Z,16.88
2019-03-24T16:16:27.240Z,16.79
2019-03-24T16:19:15.587Z,16.64
2019-03-24T16:22:03.755Z,16.55
2019-03-24T16:24:51.993Z,16.47
2019-03-24T16:27:40.520Z,16.42
2019-03-24T16:30:28.692Z,16.51
2019-03-24T16:33:16.813Z,16.51
2019-03-24T16:36:05.086Z,16.28
2019-03-24T16:39:03.153Z,16.34
2019-03-24T16:41:43.900Z,16.22
2019-03-24T16:44:32.266Z,16.31
2019-03-24T16:47:20.696Z,16.22
2019-03-24T16:50:09.343Z,16.22
2019-03-24T16:52:57.836Z,16.08
2019-03-24T16:55:46.260Z,15.98
2019-03-24T16:58:34.924Z,16.05
2019-03-24T17:01:23.768Z,15.95
2019-03-24T17:04:12.311Z,15.72
2019-03-24T17:07:00.901Z,15.70
2019-03-24T17:09:48.792Z,15.73
2019-03-24T17:12:37.434Z,15.65
2019-03-24T17:15:25.294Z,15.56
2019-03-24T17:18:13.615Z,15.46
2019-03-24T17:21:01.845Z,15.41
2019-03-24T17:23:49.941Z,15.29
2019-03-24T17:26:37.977Z,15.22
2019-03-24T17:29:25.808Z,15.18
2019-03-24T17:32:14.454Z,15.27
2019-03-24T17:35:02.696Z,15.20
2019-03-24T17:37:51.230Z,15.10
2019-03-24T17:40:39.559Z,15.06
2019-03-24T17:43:27.503Z,14.94
2019-03-24T17:46:15.434Z,14.79
2019-03-24T17:49:04.017Z,14.65
2019-03-24T17:52:00.430Z,14.51
2019-03-24T17:54:41.805Z,14.36
2019-03-24T17:57:29.854Z,14.27
2019-03-24T18:00:22.399Z,14.15
2019-03-24T18:03:10.679Z,14.22
2019-03-24T18:05:59.699Z,14.17
2019-03-24T18:08:47.694Z,14.13
2019-03-24T18:11:35.927Z,13.99
2019-03-24T18:14:24.208Z,13.93
2019-03-24T18:17:12.680Z,14.04
2019-03-24T18:20:01.248Z,14.02
2019-03-24T18:22:49.557Z,13.92
2019-03-24T18:25:37.787Z,13.84
2019-03-24T18:28:26.379Z,13.81
2019-03-24T18:31:15.106Z,13.78
2019-03-24T18:34:03.550Z,13.73
2019-03-24T18:36:51.957Z,13.87
2019-03-24T18:39:40.391Z,13.66
2019-03-24T18:42:28.987Z,13.54
2019-03-24T18:45:17.718Z,13.48
2019-03-24T18:48:06.772Z,13.52
2019-03-24T18:50:55.577Z,13.57
2019-03-24T18:53:44.068Z,13.69
2019-03-24T18:56:32.462Z,13.60
2019-03-24T18:59:21.075Z,13.62
2019-03-24T19:02:09.866Z,13.69
2019-03-24T19:04:58.391Z,13.64
2019-03-24T19:07:47.240Z,13.46
2019-03-24T19:10:35.976Z,13.37
2019-03-24T19:13:24.731Z,13.23
2019-03-24T19:16:13.726Z,13.22
2019-03-24T19:19:02.516Z,13.18
2019-03-24T19:21:51.889Z,13.11
2019-03-24T19:24:40.743Z,13.10
2019-03-24T19:27:30.065Z,13.09
2019-03-24T19:30:22.828Z,12.93
2019-03-24T19:33:13.835Z,13.03
2019-03-24T19:36:05.421Z,12.88
2019-03-24T19:38:56.406Z,12.93
2019-03-24T19:41:47.400Z,12.80
2019-03-24T19:44:37.864Z,12.89
2019-03-24T19:47:31.294Z,12.79
2019-03-24T19:50:22.084Z,12.67
2019-03-24T19:53:12.707Z,12.65
2019-03-24T19:56:03.796Z,12.54
2019-03-24T19:58:54.785Z,12.44
2019-03-24T20:01:45.523Z,12.36
2019-03-24T20:04:36.086Z,12.38
2019-03-24T20:07:26.479Z,12.33
2019-03-24T20:10:17.039Z,12.26
2019-03-24T20:13:08.146Z,12.11
2019-03-24T20:15:59.502Z,12.14
2019-03-24T20:18:50.381Z,12.08
2019-03-24T20:21:41.225Z,12.00
2019-03-24T20:24:31.801Z,11.96
2019-03-24T20:27:22.571Z,11.93
2019-03-24T20:30:15.487Z,11.96
2019-03-24T20:33:06.086Z,11.90
2019-03-24T20:35:57.392Z,11.83
2019-03-24T20:38:50.521Z,11.70
2019-03-24T20:41:58.476Z,11.79
2019-03-24T20:44:48.887Z,11.78
2019-03-24T20:47:39.944Z,11.76
2019-03-24T20:50:31.020Z,11.65
2019-03-24T20:53:21.606Z,11.71
2019-03-24T20:56:12.470Z,11.70
2019-03-24T20:59:03.384Z,11.80
2019-03-24T21:01:54.697Z,11.68
2019-03-24T21:04:45.316Z,11.71
2019-03-24T21:07:35.672Z,11.70
2019-03-24T21:10:25.701Z,11.70
2019-03-24T21:13:15.764Z,11.61
2019-03-24T21:16:05.278Z,11.58
2019-03-24T21:18:54.858Z,11.51
2019-03-24T21:21:46.829Z,11.62
2019-03-24T21:24:37.362Z,11.64
2019-03-24T21:27:26.163Z,11.60
2019-03-24T21:30:15.098Z,11.50
2019-03-24T21:33:03.511Z,11.36
2019-03-24T21:35:52.065Z,11.38
2019-03-24T21:38:40.321Z,11.20
2019-03-24T21:41:28.797Z,11.29
2019-03-24T21:44:17.393Z,11.16
2019-03-24T21:47:05.854Z,11.11
2019-03-24T21:49:54.105Z,11.16
2019-03-24T21:52:42.373Z,11.17
2019-03-24T21:55:30.983Z,11.04
2019-03-24T21:58:19.008Z,10.88
2019-03-24T22:01:07.350Z,10.79
2019-03-24T22:03:55.523Z,10.74
2019-03-24T22:06:44.238Z,10.70
2019-03-24T22:09:32.830Z,10.55
2019-03-24T22:12:21.234Z,10.31
2019-03-24T22:15:09.766Z,10.37
2019-03-24T22:17:58.219Z,10.16
2019-03-24T22:20:49.129Z,10.19
2019-03-24T22:23:36.113Z,10.27
2019-03-24T22:26:24.538Z,10.27
2019-03-24T22:29:12.476Z,10.24
2019-03-24T22:32:00.699Z,10.21
2019-03-24T22:34:48.912Z,10.21
2019-03-24T22:37:36.940Z,10.18
2019-03-24T22:40:25.532Z,10.18
2019-03-24T22:43:13.340Z,10.11
2019-03-24T22:46:01.589Z,10.14
2019-03-24T22:48:49.513Z,10.20
2019-03-24T22:51:38.115Z,10.15
2019-03-24T22:54:26.469Z,10.17
2019-03-24T22:57:14.796Z,10.13
2019-03-24T23:00:02.799Z,10.06
2019-03-24T23:02:50.928Z,10.10
2019-03-24T23:05:39.198Z,10.11
2019-03-24T23:08:27.644Z,10.26
2019-03-24T23:11:15.754Z,10.34
2019-03-24T23:14:04.414Z,10.17
2019-03-24T23:16:52.275Z,10.17
2019-03-24T23:19:40.958Z,10.25
2019-03-24T23:22:29.523Z,10.16
2019-03-24T23:25:17.776Z,10.04
2019-03-24T23:28:06.383Z,10.07
2019-03-24T23:30:54.913Z,10.08
2019-03-24T23:33:43.468Z,9.97
2019-03-24T23:36:31.662Z,9.90
2019-03-24T23:39:19.686Z,9.71
2019-03-24T23:42:07.805Z,9.61
2019-03-24T23:44:56.477Z,9.51
2019-03-24T23:47:44.827Z,9.59
2019-03-24T23:50:33.432Z,9.56
2019-03-24T23:53:21.840Z,9.32
2019-03-24T23:56:10.064Z,9.51
2019-03-24T23:58:58.698Z,9.46
